.
WxDataArchive / Data Records for 2007-10-01
2007-09-30 October 2007 2007-10-02

Data Records for Monday, 01 October 2007

Time	Temp	Chill	HIndex	Humid	Dewpt	 Wind 	HiWind	WindDir	Rain 	Barom 
-----	----	-----	------	-----	-----	------	------	-------	-----	----- 
00:00	65.8	65.8	65.8	53	48.2	0	2	248	0.00	30.083 
00:05	66.0	66.0	66.0	52	47.9	1	4	68	0.00	30.079 
00:10	66.1	66.1	66.1	51	47.4	0	2	68	0.00	30.077 
00:15	66.3	66.3	66.3	51	47.6	1	5	248	0.00	30.075 
00:20	66.3	66.3	66.3	50	47.1	1	4	68	0.00	30.068 
00:25	66.4	66.4	66.4	50	47.2	0	2	68	0.00	30.068 
00:30	66.4	66.4	66.4	50	47.2	1	3	202	0.00	30.066 
00:35	66.6	66.6	66.6	49	46.8	1	4	22	0.00	30.064 
00:40	66.6	66.6	66.6	49	46.8	0	3	248	0.00	30.062 
00:45	66.6	66.6	66.6	49	46.8	1	6	248	0.00	30.058 
00:50	66.6	66.6	66.6	49	46.8	0	2	180	0.00	30.057 
00:55	66.6	66.6	66.6	48	46.3	1	5	90	0.00	30.057 
01:00	66.6	66.6	66.6	48	46.3	0	2	45	0.00	30.055 
01:05	66.6	66.6	66.6	48	46.3	1	5	270	0.00	30.055 
01:10	66.4	66.4	66.4	49	46.7	1	3	90	0.00	30.056 
01:15	66.3	66.3	66.3	48	46.0	0	2	90	0.00	30.055 
01:20	66.3	66.3	66.3	49	46.6	0	3	90	0.00	30.056 
01:25	66.3	66.3	66.3	49	46.6	1	4	68	0.00	30.055 
01:30	66.3	66.3	66.3	48	46.0	1	3	68	0.00	30.054 
01:35	66.4	66.4	66.4	48	46.1	1	5	90	0.00	30.055 
01:40	66.4	66.4	66.4	48	46.1	1	4	90	0.00	30.054 
01:45	66.3	66.3	66.3	48	46.0	1	3	68	0.00	30.052 
01:50	66.3	66.3	66.3	48	46.0	0	3	68	0.00	30.052 
01:55	66.1	66.1	66.1	49	46.4	1	3	68	0.00	30.052 
02:00	65.8	65.8	65.8	49	46.1	0	4	270	0.00	30.053 
02:05	65.8	65.8	65.8	49	46.1	1	3	90	0.00	30.051 
02:10	65.8	65.8	65.8	49	46.1	1	9	90	0.00	30.051 
02:15	65.6	65.6	65.6	50	46.5	1	3	225	0.00	30.051 
02:20	65.6	65.6	65.6	50	46.5	1	5	90	0.00	30.048 
02:25	65.5	65.5	65.5	50	46.4	1	3	90	0.00	30.050 
02:30	65.3	65.3	65.3	50	46.2	1	3	90	0.00	30.048 
02:35	65.3	65.3	65.3	50	46.2	1	3	248	0.00	30.049 
02:40	65.2	65.2	65.2	50	46.1	1	2	248	0.00	30.049 
02:45	65.0	65.0	65.0	50	45.9	0	3	135	0.00	30.049 
02:50	64.8	64.8	64.8	51	46.2	0	2	90	0.00	30.046 
02:55	64.8	64.8	64.8	50	45.7	0	4	90	0.00	30.049 
03:00	64.8	64.8	64.8	50	45.7	1	3	270	0.00	30.047 
03:05	64.8	64.8	64.8	50	45.7	1	3	45	0.00	30.048 
03:10	64.8	64.8	64.8	50	45.7	1	3	90	0.00	30.051 
03:15	64.8	64.8	64.8	50	45.7	0	2	90	0.00	30.052 
03:20	65.0	65.0	65.0	50	45.9	1	7	90	0.00	30.053 
03:25	65.2	65.2	65.2	50	46.1	0	2	180	0.00	30.053 
03:30	65.3	65.3	65.3	50	46.2	1	3	135	0.00	30.053 
03:35	65.5	65.5	65.5	50	46.4	1	3	90	0.00	30.051 
03:40	65.5	65.5	65.5	50	46.4	0	2	90	0.00	30.049 
03:45	65.5	65.5	65.5	49	45.8	0	3	90	0.00	30.045 
03:50	65.6	65.6	65.6	49	45.9	1	4	90	0.00	30.042 
03:55	65.8	65.8	65.8	48	45.6	1	3	90	0.00	30.039 
04:00	66.0	66.0	66.0	49	46.3	1	4	90	0.00	30.040 
04:05	66.0	66.0	66.0	48	45.7	1	2	90	0.00	30.040 
04:10	66.1	66.1	66.1	48	45.8	2	6	90	0.00	30.039 
04:15	66.3	66.3	66.3	48	46.0	2	7	112	0.00	30.037 
04:20	66.3	66.3	66.3	48	46.0	1	2	68	0.00	30.037 
04:25	66.3	66.3	66.3	48	46.0	1	3	68	0.00	30.033 
04:30	66.4	66.4	66.4	48	46.1	1	5	68	0.00	30.029 
04:35	66.4	66.4	66.4	47	45.5	2	5	112	0.00	30.024 
04:40	66.6	66.6	66.6	47	45.7	2	6	112	0.00	30.023 
04:45	66.6	66.6	66.6	47	45.7	2	5	90	0.00	30.022 
04:50	66.6	66.6	66.6	47	45.7	2	4	112	0.00	30.021 
04:55	66.6	66.6	66.6	47	45.7	2	7	90	0.00	30.020 
05:00	66.8	66.8	66.8	47	45.9	2	6	90	0.00	30.020 
05:05	66.8	66.8	66.8	48	46.5	1	5	90	0.00	30.023 
05:10	66.9	66.9	66.9	47	46.0	2	7	112	0.00	30.022 
05:15	67.1	67.1	67.1	47	46.2	1	3	90	0.00	30.024 
05:20	67.3	67.3	67.3	47	46.4	2	5	112	0.00	30.023 
05:25	67.3	67.3	67.3	47	46.4	1	3	112	0.00	30.023 
05:30	67.4	67.4	67.4	46	45.9	2	7	112	0.00	30.023 
05:35	67.8	67.8	67.8	46	46.3	3	12	90	0.00	30.020 
05:40	68.1	68.1	68.1	46	46.5	2	4	90	0.00	30.023 
05:45	68.1	68.1	68.1	46	46.5	2	7	90	0.00	30.025 
05:50	68.1	68.1	68.1	46	46.5	1	7	68	0.00	30.028 
05:55	68.1	68.1	68.1	46	46.5	2	8	270	0.00	30.035 
06:00	67.9	67.9	67.9	46	46.3	1	4	248	0.00	30.034 
06:05	67.8	67.8	67.8	47	46.8	1	4	68	0.00	30.030 
06:10	67.8	67.8	67.8	47	46.8	1	4	22	0.00	30.027 
06:15	67.6	67.6	67.6	47	46.6	2	5	225	0.00	30.031 
06:20	66.3	66.3	66.3	57	50.6	1	3	248	0.01	30.038 
06:25	64.5	64.5	64.5	62	51.2	1	4	248	0.01	30.042 
06:30	62.9	62.9	62.9	70	53.0	1	5	270	0.04	30.043 
06:35	61.3	61.3	61.3	75	53.3	1	3	248	0.03	30.036 
06:40	60.2	60.2	60.2	79	53.7	0	1	270	0.00	30.035 
06:45	59.6	59.6	59.6	82	54.1	0	0	---	0.01	30.034 
06:50	59.3	59.3	59.3	84	54.5	0	1	270	0.00	30.040 
06:55	59.2	59.2	59.2	84	54.4	0	2	315	0.00	30.041 
07:00	59.5	59.5	59.5	81	53.7	1	3	90	0.00	30.037 
07:05	59.9	59.9	59.9	77	52.7	2	6	112	0.00	30.032 
07:10	60.2	60.2	60.2	78	53.3	2	5	90	0.00	30.032 
07:15	60.4	60.4	60.4	78	53.5	2	5	112	0.00	30.031 
07:20	60.4	60.4	60.4	77	53.2	2	7	112	0.00	30.032 
07:25	60.4	60.4	60.4	78	53.5	2	6	112	0.00	30.028 
07:30	60.4	60.4	60.4	78	53.5	2	5	90	0.00	30.025 
07:35	60.2	60.2	60.2	78	53.3	2	6	90	0.00	30.028 
07:40	60.2	60.2	60.2	78	53.3	1	3	112	0.01	30.026 
07:45	60.2	60.2	60.2	79	53.7	0	3	112	0.00	30.030 
07:50	60.2	60.2	60.2	77	53.0	2	4	112	0.00	30.028 
07:55	60.5	60.5	60.5	76	52.9	2	5	90	0.00	30.031 
08:00	60.7	60.7	60.7	75	52.7	1	5	112	0.00	30.033 
08:05	60.9	60.9	60.9	73	52.2	1	6	90	0.00	30.033 
08:10	61.2	61.2	61.2	73	52.5	1	4	90	0.00	30.033 
08:15	61.3	61.3	61.3	73	52.6	2	10	68	0.00	30.033 
08:20	61.6	61.6	61.6	72	52.5	2	5	112	0.00	30.034 
08:25	61.8	61.8	61.8	72	52.7	2	7	90	0.00	30.033 
08:30	62.0	62.0	62.0	72	52.9	2	10	68	0.00	30.034 
08:35	61.8	61.8	61.8	75	53.8	1	6	270	0.00	30.033 
08:40	61.5	61.5	61.5	75	53.5	1	4	90	0.00	30.034 
08:45	61.6	61.6	61.6	75	53.6	1	5	22	0.00	30.034 
08:50	61.8	61.8	61.8	74	53.4	1	8	90	0.00	30.035 
08:55	62.0	62.0	62.0	74	53.6	1	4	68	0.00	30.035 
09:00	62.0	62.0	62.0	74	53.6	1	7	0	0.00	30.031 
09:05	62.3	62.3	62.3	73	53.5	2	6	225	0.00	30.033 
09:10	62.6	62.6	62.6	73	53.8	2	7	45	0.00	30.035 
09:15	62.7	62.7	62.7	73	53.9	1	4	68	0.00	30.039 
09:20	63.1	63.1	63.1	73	54.3	1	5	90	0.00	30.042 
09:25	63.2	63.2	63.2	72	54.0	1	5	90	0.00	30.043 
09:30	63.4	63.4	63.4	72	54.2	2	7	112	0.00	30.036 
09:35	63.4	63.4	63.4	71	53.8	2	6	68	0.00	30.036 
09:40	63.7	63.7	63.7	71	54.1	3	6	90	0.00	30.032 
09:45	63.7	63.7	63.7	71	54.1	2	6	90	0.00	30.033 
09:50	63.9	63.9	63.9	70	53.9	3	11	112	0.00	30.032 
09:55	63.7	63.7	63.7	69	53.3	3	7	68	0.00	30.031 
10:00	63.7	63.7	63.7	69	53.3	2	5	112	0.00	30.032 
10:05	63.5	63.5	63.5	69	53.1	2	7	112	0.00	30.032 
10:10	63.5	63.5	63.5	69	53.1	3	6	90	0.00	30.031 
10:15	64.0	64.0	64.0	70	54.0	2	9	112	0.00	30.031 
10:20	65.3	65.3	65.3	67	54.1	3	9	112	0.00	30.027 
10:25	66.3	66.3	66.3	65	54.2	3	10	112	0.00	30.023 
10:30	67.3	67.3	67.3	64	54.7	2	6	90	0.00	30.024 
10:35	67.9	67.9	67.9	64	55.3	2	5	90	0.00	30.025 
10:40	68.4	68.4	68.4	61	54.4	3	6	90	0.00	30.023 
10:45	68.9	68.9	68.9	64	56.2	2	6	90	0.00	30.022 
10:50	69.3	69.3	69.3	61	55.3	2	5	68	0.00	30.017 
10:55	69.8	69.8	69.8	60	55.3	2	6	270	0.00	30.016 
11:00	69.9	69.9	69.9	58	54.4	3	11	112	0.00	30.012 
11:05	70.4	70.4	70.4	58	54.9	3	10	248	0.00	30.011 
11:10	71.1	71.1	71.1	57	55.1	1	7	68	0.00	30.011 
11:15	71.5	71.5	71.5	57	55.5	3	9	248	0.00	30.009 
11:20	72.0	72.0	72.0	55	54.9	3	6	248	0.00	30.010 
11:25	72.1	72.1	72.1	54	54.5	3	10	90	0.00	30.010 
11:30	71.5	71.5	71.5	53	53.5	3	10	248	0.00	30.013 
11:35	71.1	71.1	71.1	54	53.6	4	14	270	0.00	30.013 
11:40	71.3	71.3	71.3	53	53.3	4	12	270	0.00	30.013 
11:45	72.0	72.0	72.0	54	54.4	2	11	248	0.00	30.005 
11:50	72.8	72.8	72.8	52	54.1	3	11	270	0.00	30.002 
11:55	73.3	73.3	73.3	51	54.1	3	9	270	0.00	29.998 
12:00	73.9	73.9	73.9	50	54.1	3	8	248	0.00	29.994 
12:05	74.0	74.0	74.0	51	54.7	2	6	248	0.00	29.992 
12:10	74.6	74.6	74.6	51	55.3	2	6	248	0.00	29.991 
12:15	75.1	75.1	77.7	50	55.2	2	6	270	0.00	29.988 
12:20	75.1	75.1	77.7	49	54.6	3	13	270	0.00	29.989 
12:25	74.9	74.9	74.9	50	55.0	3	11	270	0.00	29.989 
12:30	75.1	75.1	77.7	49	54.6	3	9	248	0.00	29.987 
12:35	74.7	74.7	74.7	51	55.4	3	8	270	0.00	29.980 
12:40	74.9	74.9	74.9	50	55.0	2	6	270	0.00	29.977 
12:45	74.7	74.7	74.7	52	55.9	3	8	270	0.00	29.977 
12:50	74.6	74.6	74.6	50	54.7	3	6	248	0.00	29.977 
12:55	74.2	74.2	74.2	52	55.4	1	4	248	0.00	29.979 
13:00	74.0	74.0	74.0	50	54.2	3	7	270	0.00	29.978 
13:05	73.7	73.7	73.7	51	54.4	2	7	248	0.00	29.977 
13:10	73.7	73.7	73.7	51	54.4	3	9	248	0.00	29.977 
13:15	73.5	73.5	73.5	52	54.8	2	5	270	0.00	29.977 
13:20	73.3	73.3	73.3	52	54.6	2	5	248	0.00	29.978 
13:25	73.2	73.2	73.2	52	54.5	2	6	248	0.00	29.977 
13:30	73.2	73.2	73.2	52	54.5	2	5	248	0.00	29.975 
13:35	73.3	73.3	73.3	52	54.6	2	6	270	0.00	29.971 
13:40	73.7	73.7	73.7	52	55.0	2	7	270	0.00	29.970 
13:45	74.4	74.4	74.4	52	55.6	2	7	270	0.00	29.965 
13:50	74.9	74.9	74.9	50	55.0	3	11	270	0.00	29.964 
13:55	75.6	75.6	77.9	50	55.6	2	5	270	0.00	29.962 
14:00	76.0	76.0	78.1	50	56.0	1	4	270	0.00	29.961 
14:05	76.3	76.3	78.2	50	56.3	3	7	90	0.00	29.961 
14:10	75.8	75.8	78.0	49	55.3	2	7	270	0.00	29.960 
14:15	75.4	75.4	77.8	49	54.9	2	6	270	0.00	29.958 
14:20	75.1	75.1	77.7	51	55.7	2	6	248	0.00	29.958 
14:25	74.7	74.7	74.7	51	55.4	2	4	248	0.00	29.958 
14:30	74.4	74.4	74.4	51	55.1	2	10	248	0.00	29.958 
14:35	74.2	74.2	74.2	51	54.9	3	7	270	0.00	29.960 
14:40	74.0	74.0	74.0	52	55.2	1	5	248	0.00	29.963 
14:45	73.5	73.5	73.5	56	56.8	1	5	248	0.00	29.962 
14:50	73.0	73.0	73.0	58	57.3	1	4	248	0.00	29.964 
14:55	72.1	72.1	72.1	60	57.4	2	4	270	0.00	29.965 
15:00	72.0	72.0	72.0	60	57.3	1	4	248	0.00	29.966 
15:05	72.0	72.0	72.0	61	57.8	1	3	315	0.00	29.974 
15:10	71.1	71.1	71.1	63	57.9	1	4	292	0.00	29.980 
15:15	70.1	70.1	70.1	63	56.9	2	4	270	0.00	29.981 
15:20	69.3	69.3	69.3	63	56.2	2	5	270	0.00	29.985 
15:25	68.8	68.8	68.8	64	56.1	2	5	270	0.00	29.987 
15:30	68.4	68.4	68.4	65	56.2	1	3	270	0.00	29.985 
15:35	68.1	68.1	68.1	65	55.9	0	2	292	0.00	29.983 
15:40	67.9	67.9	67.9	65	55.7	1	4	270	0.00	29.987 
15:45	67.8	67.8	67.8	66	56.0	1	3	292	0.00	29.989 
15:50	67.4	67.4	67.4	66	55.6	2	4	270	0.00	29.987 
15:55	67.1	67.1	67.1	67	55.8	2	4	270	0.00	29.989 
16:00	66.9	66.9	66.9	68	56.0	1	3	270	0.00	29.991 
16:05	66.6	66.6	66.6	69	56.1	1	4	315	0.00	29.995 
16:10	66.1	66.1	66.1	70	56.0	1	3	292	0.00	29.998 
16:15	66.0	66.0	66.0	72	56.7	1	2	315	0.00	29.998 
16:20	66.0	66.0	66.0	72	56.7	1	3	270	0.00	30.000 
16:25	66.1	66.1	66.1	71	56.4	1	3	270	0.00	29.999 
16:30	66.3	66.3	66.3	72	57.0	1	3	270	0.00	29.999 
16:35	66.1	66.1	66.1	72	56.8	1	3	270	0.00	29.999 
16:40	66.1	66.1	66.1	72	56.8	1	4	248	0.00	30.001 
16:45	66.1	66.1	66.1	73	57.2	1	3	248	0.00	30.000 
16:50	66.1	66.1	66.1	73	57.2	2	3	270	0.00	29.999 
16:55	66.1	66.1	66.1	74	57.6	1	3	248	0.00	30.002 
17:00	66.1	66.1	66.1	74	57.6	2	6	248	0.00	30.003 
17:05	66.0	66.0	66.0	74	57.5	2	5	270	0.00	29.999 
17:10	65.5	65.5	65.5	77	58.1	2	4	248	0.00	29.998 
17:15	65.0	65.0	65.0	80	58.7	1	3	248	0.00	30.000 
17:20	64.7	64.7	64.7	80	58.4	1	3	248	0.00	29.998 
17:25	64.7	64.7	64.7	81	58.7	0	2	248	0.00	29.999 
17:30	64.8	64.8	64.8	81	58.8	0	2	248	0.00	30.000 
17:35	64.8	64.8	64.8	80	58.5	0	2	248	0.00	30.001 
17:40	65.0	65.0	65.0	80	58.7	0	2	248	0.00	30.000 
17:45	65.0	65.0	65.0	79	58.3	0	2	248	0.00	30.001 
17:50	65.2	65.2	65.2	78	58.2	0	2	248	0.00	30.004 
17:55	65.2	65.2	65.2	77	57.8	1	4	248	0.00	30.008 
18:00	65.3	65.3	65.3	77	57.9	0	3	248	0.00	30.012 
18:05	65.3	65.3	65.3	77	57.9	2	4	270	0.00	30.020 
18:10	65.2	65.2	65.2	77	57.8	0	1	270	0.00	30.022 
18:15	65.2	65.2	65.2	78	58.2	0	3	270	0.00	30.022 
18:20	65.0	65.0	65.0	78	58.0	0	1	270	0.00	30.022 
18:25	65.0	65.0	65.0	79	58.3	0	0	---	0.00	30.022 
18:30	64.8	64.8	64.8	79	58.1	0	1	270	0.00	30.022 
18:35	64.8	64.8	64.8	79	58.1	1	3	270	0.00	30.022 
18:40	64.8	64.8	64.8	78	57.8	0	2	270	0.00	30.022 
18:45	64.8	64.8	64.8	78	57.8	0	1	270	0.00	30.024 
18:50	64.8	64.8	64.8	79	58.1	0	1	270	0.00	30.026 
18:55	64.8	64.8	64.8	79	58.1	0	1	270	0.00	30.030 
19:00	64.7	64.7	64.7	79	58.0	0	1	270	0.00	30.031 
19:05	64.7	64.7	64.7	80	58.4	0	1	270	0.00	30.030 
19:10	64.8	64.8	64.8	79	58.1	1	3	270	0.00	30.028 
19:15	64.8	64.8	64.8	78	57.8	0	2	270	0.00	30.031 
19:20	65.0	65.0	65.0	78	58.0	0	2	270	0.00	30.032 
19:25	65.0	65.0	65.0	78	58.0	0	2	270	0.00	30.032 
19:30	65.0	65.0	65.0	77	57.6	0	1	270	0.00	30.031 
19:35	65.0	65.0	65.0	77	57.6	0	2	248	0.00	30.032 
19:40	65.0	65.0	65.0	77	57.6	0	2	248	0.00	30.031 
19:45	65.2	65.2	65.2	77	57.8	0	2	248	0.00	30.032 
19:50	65.0	65.0	65.0	77	57.6	0	2	248	0.00	30.034 
19:55	65.0	65.0	65.0	77	57.6	0	2	248	0.00	30.035 
20:00	64.8	64.8	64.8	77	57.4	1	2	248	0.00	30.036 
20:05	64.7	64.7	64.7	78	57.7	0	1	248	0.00	30.036 
20:10	64.5	64.5	64.5	78	57.5	0	2	248	0.00	30.037 
20:15	64.5	64.5	64.5	78	57.5	0	1	248	0.00	30.036 
20:20	64.3	64.3	64.3	79	57.6	0	1	248	0.00	30.036 
20:25	64.0	64.0	64.0	79	57.4	0	1	248	0.00	30.036 
20:30	63.9	63.9	63.9	80	57.6	0	1	248	0.00	30.036 
20:35	63.7	63.7	63.7	80	57.4	0	0	---	0.00	30.036 
20:40	63.5	63.5	63.5	81	57.6	0	1	248	0.00	30.036 
20:45	63.4	63.4	63.4	81	57.5	0	1	248	0.00	30.038 
20:50	63.4	63.4	63.4	82	57.8	0	1	248	0.00	30.037 
20:55	63.4	63.4	63.4	82	57.8	0	1	248	0.00	30.037 
21:00	63.4	63.4	63.4	82	57.8	0	1	248	0.00	30.037 
21:05	63.4	63.4	63.4	82	57.8	0	0	---	0.00	30.035 
21:10	63.4	63.4	63.4	82	57.8	0	0	---	0.00	30.034 
21:15	63.2	63.2	63.2	83	57.9	0	0	---	0.00	30.034 
21:20	63.2	63.2	63.2	83	57.9	0	1	248	0.00	30.033 
21:25	63.2	63.2	63.2	83	57.9	0	1	248	0.00	30.033 
21:30	63.2	63.2	63.2	83	57.9	0	1	248	0.00	30.032 
21:35	63.2	63.2	63.2	83	57.9	0	1	248	0.00	30.033 
21:40	63.2	63.2	63.2	83	57.9	0	1	248	0.00	30.035 
21:45	63.2	63.2	63.2	83	57.9	0	1	248	0.00	30.035 
21:50	63.2	63.2	63.2	84	58.3	0	0	---	0.00	30.035 
21:55	63.2	63.2	63.2	84	58.3	0	1	248	0.00	30.035 
22:00	63.1	63.1	63.1	84	58.2	0	0	---	0.00	30.035 
22:05	63.1	63.1	63.1	84	58.2	0	0	---	0.00	30.031 
22:10	62.9	62.9	62.9	84	58.0	0	0	---	0.00	30.030 
22:15	62.9	62.9	62.9	84	58.0	0	1	248	0.00	30.030 
22:20	62.7	62.7	62.7	85	58.1	0	0	---	0.00	30.031 
22:25	62.7	62.7	62.7	85	58.1	0	1	248	0.00	30.031 
22:30	62.7	62.7	62.7	85	58.1	0	1	248	0.00	30.030 
22:35	62.6	62.6	62.6	85	58.0	0	1	248	0.00	30.030 
22:40	62.6	62.6	62.6	85	58.0	0	1	248	0.00	30.030 
22:45	62.6	62.6	62.6	85	58.0	0	0	---	0.00	30.030 
22:50	62.4	62.4	62.4	85	57.8	0	0	---	0.00	30.030 
22:55	62.4	62.4	62.4	86	58.2	0	1	248	0.00	30.030 
23:00	62.3	62.3	62.3	86	58.1	0	0	---	0.00	30.031 
23:05	62.3	62.3	62.3	86	58.1	0	0	---	0.00	30.027 
23:10	62.3	62.3	62.3	86	58.1	0	0	---	0.00	30.025 
23:15	62.1	62.1	62.1	86	57.9	0	0	---	0.00	30.026 
23:20	62.1	62.1	62.1	86	57.9	0	0	---	0.00	30.024 
23:25	62.1	62.1	62.1	86	57.9	0	0	---	0.00	30.018 
23:30	62.0	62.0	62.0	87	58.1	0	0	---	0.00	30.016 
23:35	62.0	62.0	62.0	87	58.1	0	0	---	0.00	30.015 
23:40	61.8	61.8	61.8	87	57.9	0	1	248	0.00	30.014 
23:45	61.8	61.8	61.8	87	57.9	0	0	---	0.00	30.014 
23:50	61.6	61.6	61.6	87	57.7	0	0	---	0.00	30.013 
23:55	61.6	61.6	61.6	88	58.0	0	0	---	0.00	30.014 

CoCoRaHS
IN-AL-39
A2 Web Hosting
Creative Commons License
GoDaddy
Look for:

loaded 2017-12-13 19:58:01 • last modified 2010-11-18 10:43:29
Privacy PolicyDisclaimer
• wx.awcolley.com is powered by PmWiki v.2002016 •
• all content (unless otherwise noted) © 2017 A W Colley